Time;durP1;ratioP1;P1;durP2;ratioP2;P2;SDS_P1;SDS_P2;PMS_P1;PMS_P2;Temp;Humidity;BMP_temperature;BMP_pressure;BME280_temperature;BME280_humidity;BME280_pressure;Samples;Min_cycle;Max_cycle;Signal;HPM_P1;HPM_P2
2023/10/26 00:00:16;;;;;;;2.30;1.10;;;;;;;;;;5054617;28;20261;-84
2023/10/26 00:02:41;;;;;;;4.10;1.40;;;;;;;;;;5057115;28;20261;-84
2023/10/26 00:05:06;;;;;;;3.63;1.13;;;;;;;;;;5075559;28;20761;-84
2023/10/26 00:07:32;;;;;;;1.33;0.98;;;;;;;;;;5057003;28;20016;-85
2023/10/26 00:09:57;;;;;;;2.83;1.10;;;;;;;;;;5057257;28;20027;-84
2023/10/26 00:12:22;;;;;;;1.70;1.20;;;;;;;;;;5057231;28;20029;-84
2023/10/26 00:14:47;;;;;;;4.87;1.30;;;;;;;;;;5057316;28;20337;-84
2023/10/26 00:17:13;;;;;;;2.60;1.10;;;;;;;;;;5057148;28;20264;-84
2023/10/26 00:19:38;;;;;;;1.47;1.13;;;;;;;;;;5056995;28;20328;-84
2023/10/26 00:22:03;;;;;;;2.55;1.20;;;;;;;;;;5056770;28;20296;-84
2023/10/26 00:24:29;;;;;;;7.97;1.52;;;;;;;;;;5075041;28;20070;-84
2023/10/26 00:26:54;;;;;;;2.22;1.30;;;;;;;;;;5056771;28;20047;-84
2023/10/26 00:29:20;;;;;;;2.87;1.37;;;;;;;;;;5056924;28;20016;-84
2023/10/26 00:31:45;;;;;;;1.50;1.10;;;;;;;;;;5056587;28;20323;-85
2023/10/26 00:34:10;;;;;;;1.83;1.30;;;;;;;;;;5056631;28;20257;-85
2023/10/26 00:36:35;;;;;;;1.93;1.20;;;;;;;;;;5056979;28;20263;-84
2023/10/26 00:39:00;;;;;;;3.73;1.60;;;;;;;;;;5056494;28;20285;-84
2023/10/26 00:41:26;;;;;;;3.13;1.30;;;;;;;;;;5056699;28;20051;-84
2023/10/26 00:43:51;;;;;;;6.27;1.30;;;;;;;;;;5056491;28;20265;-84
2023/10/26 00:46:16;;;;;;;4.07;1.50;;;;;;;;;;5074510;28;20020;-84
2023/10/26 00:48:42;;;;;;;2.70;1.23;;;;;;;;;;5056626;28;20019;-85
2023/10/26 00:51:07;;;;;;;2.53;1.50;;;;;;;;;;5056456;28;20109;-85
2023/10/26 00:53:33;;;;;;;1.70;1.20;;;;;;;;;;5056707;28;20029;-85
2023/10/26 00:55:58;;;;;;;4.43;1.35;;;;;;;;;;5056317;28;20024;-85
2023/10/26 00:58:25;;;;;;;4.70;1.48;;;;;;;;;;5056116;28;20028;-84
2023/10/26 01:00:51;;;;;;;2.08;1.20;;;;;;;;;;5056341;28;20016;-84
2023/10/26 01:03:16;;;;;;;4.22;1.52;;;;;;;;;;5056059;28;20023;-84
2023/10/26 01:05:41;;;;;;;3.95;1.00;;;;;;;;;;5056180;28;20021;-85
2023/10/26 01:08:07;;;;;;;4.20;1.30;;;;;;;;;;5074015;28;20020;-84
2023/10/26 01:10:33;;;;;;;2.33;1.20;;;;;;;;;;5055912;28;20021;-84
2023/10/26 01:12:58;;;;;;;3.80;1.65;;;;;;;;;;5074096;28;20012;-85
2023/10/26 01:15:24;;;;;;;1.50;1.20;;;;;;;;;;5055994;28;20043;-85
2023/10/26 01:17:49;;;;;;;10.70;1.23;;;;;;;;;;5055863;28;20311;-85
2023/10/26 01:20:18;;;;;;;3.07;1.13;;;;;;;;;;5056114;28;20070;-85
2023/10/26 01:22:43;;;;;;;3.15;1.27;;;;;;;;;;5073492;28;20281;-85
2023/10/26 01:25:08;;;;;;;3.50;1.48;;;;;;;;;;5073957;28;20028;-85
2023/10/26 01:27:34;;;;;;;2.10;1.17;;;;;;;;;;5073930;28;20024;-84
2023/10/26 01:29:59;;;;;;;4.70;1.80;;;;;;;;;;5055507;28;20257;-84
2023/10/26 01:32:26;;;;;;;1.70;1.27;;;;;;;;;;5055788;28;20418;-84
2023/10/26 01:34:51;;;;;;;10.00;1.70;;;;;;;;;;5055667;28;20344;-84
2023/10/26 01:37:16;;;;;;;11.00;1.60;;;;;;;;;;5073209;28;20092;-84
2023/10/26 01:39:41;;;;;;;2.57;1.60;;;;;;;;;;5055379;28;20682;-84
2023/10/26 01:42:09;;;;;;;2.47;1.40;;;;;;;;;;5055439;28;20253;-85
2023/10/26 01:44:35;;;;;;;5.85;1.48;;;;;;;;;;5054761;28;20261;-85
2023/10/26 01:47:00;;;;;;;3.22;1.60;;;;;;;;;;5055337;28;20441;-85
2023/10/26 01:49:25;;;;;;;2.33;1.37;;;;;;;;;;5073472;28;20032;-85
2023/10/26 01:51:50;;;;;;;11.77;1.80;;;;;;;;;;5055406;28;20237;-85
2023/10/26 01:54:16;;;;;;;3.37;1.80;;;;;;;;;;5055488;28;20257;-85
2023/10/26 01:56:41;;;;;;;4.00;1.53;;;;;;;;;;5055356;28;20476;-85
2023/10/26 01:59:06;;;;;;;3.77;1.10;;;;;;;;;;5073378;28;20028;-85
2023/10/26 02:01:31;;;;;;;4.30;1.60;;;;;;;;;;5055078;28;20261;-85
2023/10/26 02:03:57;;;;;;;5.30;1.90;;;;;;;;;;5055241;28;20362;-84
2023/10/26 02:06:22;;;;;;;4.17;1.70;;;;;;;;;;5054916;28;20852;-84
2023/10/26 02:08:47;;;;;;;2.37;1.43;;;;;;;;;;5055312;28;20686;-85
2023/10/26 02:11:12;;;;;;;2.75;1.30;;;;;;;;;;5055308;28;20836;-84
2023/10/26 02:13:39;;;;;;;3.23;1.60;;;;;;;;;;5054900;28;20031;-84
2023/10/26 02:16:05;;;;;;;4.00;1.80;;;;;;;;;;5054787;28;20264;-84
2023/10/26 02:18:30;;;;;;;2.58;1.48;;;;;;;;;;5055159;28;20024;-85
2023/10/26 02:20:55;;;;;;;5.45;1.38;;;;;;;;;;5072905;28;20035;-84
2023/10/26 02:23:21;;;;;;;3.77;1.60;;;;;;;;;;5072622;28;20404;-85
2023/10/26 02:25:46;;;;;;;2.25;1.25;;;;;;;;;;5054926;28;20356;-84
2023/10/26 02:28:15;;;;;;;3.70;1.65;;;;;;;;;;5054931;28;20032;-85
2023/10/26 02:30:41;;;;;;;1.65;1.40;;;;;;;;;;5065062;28;20372;-85
2023/10/26 02:33:06;;;;;;;1.80;1.42;;;;;;;;;;5072793;28;20016;-84
2023/10/26 02:35:31;;;;;;;5.23;1.70;;;;;;;;;;5054542;28;20096;-84
2023/10/26 02:37:56;;;;;;;4.70;1.70;;;;;;;;;;5054774;28;20352;-84
2023/10/26 02:40:21;;;;;;;2.73;1.63;;;;;;;;;;5054748;28;20764;-85
2023/10/26 02:42:47;;;;;;;1.70;1.33;;;;;;;;;;5072726;28;20042;-84
2023/10/26 02:45:12;;;;;;;2.50;1.70;;;;;;;;;;5072728;28;20272;-84
2023/10/26 02:47:37;;;;;;;3.00;1.60;;;;;;;;;;5072433;28;20567;-85
2023/10/26 02:50:03;;;;;;;5.45;2.17;;;;;;;;;;5054554;28;20748;-84
2023/10/26 02:52:28;;;;;;;4.82;1.77;;;;;;;;;;5072530;28;20013;-84
2023/10/26 02:54:53;;;;;;;5.57;1.83;;;;;;;;;;5054616;28;20020;-85
2023/10/26 02:57:19;;;;;;;12.50;1.83;;;;;;;;;;5076728;28;20280;-85
2023/10/26 02:59:44;;;;;;;3.23;1.70;;;;;;;;;;5058602;28;20507;-84
2023/10/26 03:02:09;;;;;;;6.47;2.00;;;;;;;;;;5076265;28;20020;-85
2023/10/26 03:04:34;;;;;;;4.80;1.97;;;;;;;;;;5058597;28;20268;-85
2023/10/26 03:07:00;;;;;;;3.33;1.92;;;;;;;;;;5058396;28;20016;-85
2023/10/26 03:09:25;;;;;;;2.75;1.77;;;;;;;;;;5076329;28;20540;-85
2023/10/26 03:11:51;;;;;;;4.32;1.60;;;;;;;;;;5076343;28;20012;-85
2023/10/26 03:14:18;;;;;;;2.25;1.23;;;;;;;;;;5058091;28;20059;-85
2023/10/26 03:16:43;;;;;;;3.03;1.75;;;;;;;;;;5058220;28;20020;-85
2023/10/26 03:19:09;;;;;;;3.07;1.70;;;;;;;;;;5058208;28;20029;-84
2023/10/26 03:21:34;;;;;;;3.83;1.83;;;;;;;;;;5058006;28;20265;-85
2023/10/26 03:23:59;;;;;;;2.90;1.40;;;;;;;;;;5057861;28;20037;-84
2023/10/26 03:26:25;;;;;;;1.90;1.43;;;;;;;;;;5057775;28;20029;-84
2023/10/26 03:28:51;;;;;;;2.15;1.20;;;;;;;;;;5058080;28;20602;-85
2023/10/26 03:31:16;;;;;;;2.58;1.30;;;;;;;;;;5076010;28;20495;-85
2023/10/26 03:33:42;;;;;;;6.43;1.33;;;;;;;;;;5057707;28;20107;-85
2023/10/26 03:36:17;;;;;;;1.20;0.93;;;;;;;;;;5057791;28;20067;-85
2023/10/26 03:38:43;;;;;;;3.78;1.17;;;;;;;;;;5057780;28;20028;-85
2023/10/26 03:41:08;;;;;;;1.75;1.25;;;;;;;;;;5075875;28;20029;-85
2023/10/26 03:43:33;;;;;;;1.05;0.95;;;;;;;;;;5075403;28;20020;-85
2023/10/26 03:45:58;;;;;;;1.50;1.20;;;;;;;;;;5057203;28;20480;-85
2023/10/26 03:48:24;;;;;;;3.63;1.40;;;;;;;;;;5075529;28;20764;-85
2023/10/26 03:50:49;;;;;;;2.37;1.10;;;;;;;;;;5057792;28;20753;-85
2023/10/26 03:53:14;;;;;;;1.40;1.00;;;;;;;;;;5075853;28;20245;-85
2023/10/26 03:55:39;;;;;;;2.53;1.00;;;;;;;;;;5075298;28;20265;-85
2023/10/26 03:58:04;;;;;;;4.60;1.40;;;;;;;;;;5057608;28;20020;-84
2023/10/26 04:00:30;;;;;;;1.30;1.20;;;;;;;;;;5057217;28;20025;-84
2023/10/26 04:02:55;;;;;;;5.27;2.00;;;;;;;;;;5057561;28;20340;-84
2023/10/26 04:05:20;;;;;;;3.97;1.67;;;;;;;;;;5057447;28;20617;-85
2023/10/26 04:07:45;;;;;;;8.77;1.50;;;;;;;;;;5056427;28;20652;-85
2023/10/26 04:10:11;;;;;;;3.75;1.75;;;;;;;;;;5075597;28;20099;-85
2023/10/26 04:12:36;;;;;;;3.00;1.40;;;;;;;;;;5057509;28;20460;-85
2023/10/26 04:15:02;;;;;;;3.22;1.42;;;;;;;;;;5057237;28;20264;-84
2023/10/26 04:17:28;;;;;;;1.60;1.45;;;;;;;;;;5057180;28;20433;-84
2023/10/26 04:19:53;;;;;;;2.23;1.50;;;;;;;;;;5075124;28;20107;-84
2023/10/26 04:22:18;;;;;;;1.40;1.30;;;;;;;;;;5074701;28;20641;-83
2023/10/26 04:24:43;;;;;;;1.20;1.10;;;;;;;;;;5056987;28;20083;-83
2023/10/26 04:27:09;;;;;;;2.83;1.70;;;;;;;;;;5056547;28;20645;-83
2023/10/26 04:29:34;;;;;;;4.83;1.67;;;;;;;;;;5056831;28;20617;-84
2023/10/26 04:31:59;;;;;;;4.33;1.83;;;;;;;;;;5074847;28;20486;-84
2023/10/26 04:34:25;;;;;;;2.85;1.60;;;;;;;;;;5057394;28;20816;-84
2023/10/26 04:36:51;;;;;;;2.88;1.52;;;;;;;;;;5056587;28;20112;-84
2023/10/26 04:39:16;;;;;;;2.42;1.50;;;;;;;;;;5073590;28;20040;-83
2023/10/26 04:41:43;;;;;;;3.88;1.75;;;;;;;;;;5055841;28;20017;-84
2023/10/26 04:44:08;;;;;;;2.90;1.67;;;;;;;;;;5056313;28;20074;-84
2023/10/26 04:46:33;;;;;;;2.80;1.88;;;;;;;;;;5056786;28;20032;-84
2023/10/26 04:48:58;;;;;;;1.90;1.40;;;;;;;;;;5056896;28;20012;-84
2023/10/26 04:51:24;;;;;;;7.28;2.13;;;;;;;;;;5074688;28;20246;-84
2023/10/26 04:53:49;;;;;;;2.27;1.47;;;;;;;;;;5056653;28;20027;-84
2023/10/26 04:56:14;;;;;;;4.88;1.42;;;;;;;;;;5074427;28;20253;-84
2023/10/26 04:58:40;;;;;;;2.97;1.77;;;;;;;;;;5056646;28;20073;-84
2023/10/26 05:01:05;;;;;;;2.70;1.38;;;;;;;;;;5056438;28;20341;-84
2023/10/26 05:03:30;;;;;;;6.32;1.45;;;;;;;;;;5056439;28;20016;-84
2023/10/26 05:05:56;;;;;;;4.65;1.50;;;;;;;;;;5074264;28;20017;-84
2023/10/26 05:08:21;;;;;;;3.72;1.50;;;;;;;;;;5074207;28;20095;-83
2023/10/26 05:10:47;;;;;;;3.53;1.50;;;;;;;;;;5056376;28;20017;-83
2023/10/26 05:13:12;;;;;;;6.40;1.50;;;;;;;;;;5056297;28;20063;-83
2023/10/26 05:15:37;;;;;;;3.45;1.23;;;;;;;;;;5056235;28;20027;-83
2023/10/26 05:18:03;;;;;;;1.50;1.00;;;;;;;;;;5056115;28;20107;-84
2023/10/26 05:20:30;;;;;;;4.63;1.50;;;;;;;;;;5056406;28;20285;-84
2023/10/26 05:22:55;;;;;;;5.18;1.13;;;;;;;;;;5055905;28;20052;-84
2023/10/26 05:25:20;;;;;;;4.77;1.20;;;;;;;;;;5056031;28;20082;-83
2023/10/26 05:27:46;;;;;;;1.43;0.93;;;;;;;;;;5073889;28;20339;-83
2023/10/26 05:30:11;;;;;;;4.32;1.20;;;;;;;;;;5055936;28;20272;-84
2023/10/26 05:32:37;;;;;;;1.27;0.90;;;;;;;;;;5073810;28;20016;-84
2023/10/26 05:35:02;;;;;;;4.68;1.20;;;;;;;;;;5073692;28;20021;-83
2023/10/26 05:37:27;;;;;;;1.75;0.80;;;;;;;;;;5055806;28;20021;-83
2023/10/26 05:39:52;;;;;;;0.98;0.90;;;;;;;;;;5073743;28;20149;-84
2023/10/26 05:42:18;;;;;;;14.00;1.10;;;;;;;;;;5073584;28;20025;-83
2023/10/26 05:44:43;;;;;;;11.50;1.20;;;;;;;;;;5073860;28;20264;-83
2023/10/26 05:47:09;;;;;;;1.53;1.03;;;;;;;;;;5073638;28;20024;-83
2023/10/26 05:49:34;;;;;;;1.45;1.10;;;;;;;;;;5055751;28;20280;-83
2023/10/26 05:52:01;;;;;;;2.05;0.88;;;;;;;;;;5073612;28;20016;-84
2023/10/26 05:54:26;;;;;;;2.15;1.10;;;;;;;;;;5055620;28;20016;-83
2023/10/26 05:56:52;;;;;;;0.95;0.85;;;;;;;;;;5073597;28;20377;-83
2023/10/26 05:59:17;;;;;;;0.90;0.80;;;;;;;;;;5055616;28;20430;-83
2023/10/26 06:01:42;;;;;;;3.47;1.07;;;;;;;;;;5055620;28;20733;-83
2023/10/26 06:04:07;;;;;;;2.00;1.20;;;;;;;;;;5073417;28;20020;-84
2023/10/26 06:06:33;;;;;;;1.98;1.23;;;;;;;;;;5073375;28;20269;-84
2023/10/26 06:08:59;;;;;;;2.65;1.25;;;;;;;;;;5055532;28;20024;-83
2023/10/26 06:11:25;;;;;;;2.88;1.23;;;;;;;;;;5055407;28;20050;-83
2023/10/26 06:13:51;;;;;;;2.08;1.05;;;;;;;;;;5055375;28;20048;-83
2023/10/26 06:16:17;;;;;;;3.08;1.10;;;;;;;;;;5055332;28;20017;-83
2023/10/26 06:18:42;;;;;;;1.38;1.08;;;;;;;;;;5073430;28;20031;-83
2023/10/26 06:21:08;;;;;;;4.22;1.10;;;;;;;;;;5073275;28;20028;-83
2023/10/26 06:23:33;;;;;;;2.97;1.20;;;;;;;;;;5055266;28;20040;-83
2023/10/26 06:25:59;;;;;;;2.42;1.00;;;;;;;;;;5055195;28;20024;-83
2023/10/26 06:28:25;;;;;;;3.10;1.30;;;;;;;;;;5055197;28;20017;-83
2023/10/26 06:30:50;;;;;;;1.45;1.05;;;;;;;;;;5072803;28;20028;-83
2023/10/26 06:33:16;;;;;;;3.08;1.33;;;;;;;;;;5073178;28;20073;-83
2023/10/26 06:35:41;;;;;;;2.38;1.08;;;;;;;;;;5073064;28;20025;-83
2023/10/26 06:38:06;;;;;;;2.93;1.13;;;;;;;;;;5055226;28;20031;-83
2023/10/26 06:40:31;;;;;;;1.85;1.15;;;;;;;;;;5073089;28;20028;-83
2023/10/26 06:42:56;;;;;;;10.00;1.03;;;;;;;;;;5073139;28;20023;-83
2023/10/26 06:45:22;;;;;;;2.13;1.20;;;;;;;;;;5055079;28;20028;-83
2023/10/26 06:47:47;;;;;;;7.63;1.07;;;;;;;;;;5072957;28;20017;-83
2023/10/26 06:50:12;;;;;;;1.33;0.80;;;;;;;;;;5055114;28;20250;-83
2023/10/26 06:52:37;;;;;;;5.25;1.40;;;;;;;;;;5072972;28;20237;-83
2023/10/26 06:55:03;;;;;;;1.07;1.00;;;;;;;;;;5073004;28;20012;-83
2023/10/26 06:57:28;;;;;;;3.83;1.42;;;;;;;;;;5072911;28;20303;-83
2023/10/26 06:59:54;;;;;;;9.65;2.90;;;;;;;;;;5072935;28;20512;-83
2023/10/26 07:02:19;;;;;;;8.75;3.83;;;;;;;;;;5072818;28;20106;-83
2023/10/26 07:04:44;;;;;;;12.27;6.47;;;;;;;;;;5072983;28;20039;-83
2023/10/26 07:07:09;;;;;;;16.20;8.15;;;;;;;;;;5072810;28;20096;-83
2023/10/26 07:09:35;;;;;;;30.67;16.90;;;;;;;;;;5072886;28;20070;-83
2023/10/26 07:12:01;;;;;;;18.08;9.75;;;;;;;;;;5054894;28;20760;-84
2023/10/26 07:14:26;;;;;;;19.90;8.87;;;;;;;;;;5072758;28;20013;-83
2023/10/26 07:16:51;;;;;;;17.13;7.80;;;;;;;;;;5072697;28;20082;-83
2023/10/26 07:19:17;;;;;;;17.00;7.82;;;;;;;;;;5054732;28;20258;-83
2023/10/26 07:21:44;;;;;;;11.43;6.55;;;;;;;;;;5054702;28;20079;-83
2023/10/26 07:24:09;;;;;;;6.55;4.05;;;;;;;;;;5054673;28;20103;-83
2023/10/26 07:26:34;;;;;;;5.15;2.83;;;;;;;;;;5054557;28;20477;-83
2023/10/26 07:29:00;;;;;;;6.93;2.38;;;;;;;;;;5054708;28;20017;-83
2023/10/26 07:31:25;;;;;;;3.33;2.05;;;;;;;;;;5072566;28;20017;-83
2023/10/26 07:33:51;;;;;;;3.42;1.95;;;;;;;;;;5054598;28;20054;-83
2023/10/26 07:36:16;;;;;;;5.85;1.77;;;;;;;;;;5054545;28;20031;-83
2023/10/26 07:38:41;;;;;;;12.50;3.08;;;;;;;;;;5054561;28;20031;-83
2023/10/26 07:41:07;;;;;;;3.50;1.98;;;;;;;;;;5072502;28;20100;-83
2023/10/26 07:43:34;;;;;;;4.57;2.05;;;;;;;;;;5057179;28;20104;-83
2023/10/26 07:45:59;;;;;;;3.45;2.20;;;;;;;;;;5057935;28;20036;-84
2023/10/26 07:48:24;;;;;;;6.43;3.27;;;;;;;;;;5057995;28;20468;-84
2023/10/26 07:50:51;;;;;;;9.53;4.50;;;;;;;;;;5057986;28;20679;-84
2023/10/26 07:53:16;;;;;;;9.75;5.05;;;;;;;;;;5057934;28;20267;-83
2023/10/26 07:55:41;;;;;;;11.47;4.77;;;;;;;;;;5075854;28;20100;-83
2023/10/26 07:58:06;;;;;;;11.20;4.33;;;;;;;;;;5057848;28;20260;-83
2023/10/26 08:00:32;;;;;;;10.13;3.85;;;;;;;;;;5075745;28;20252;-83
2023/10/26 08:03:00;;;;;;;9.98;3.22;;;;;;;;;;5057745;28;20032;-83
2023/10/26 08:05:25;;;;;;;5.15;3.08;;;;;;;;;;5057708;28;20025;-83
2023/10/26 08:07:52;;;;;;;4.50;2.42;;;;;;;;;;5075551;28;20465;-83
2023/10/26 08:10:17;;;;;;;11.43;2.28;;;;;;;;;;5057805;28;20020;-83
2023/10/26 08:12:42;;;;;;;5.90;2.10;;;;;;;;;;5075530;28;20375;-83
2023/10/26 08:15:08;;;;;;;3.53;1.58;;;;;;;;;;5057502;28;20081;-83
2023/10/26 08:17:36;;;;;;;3.30;1.30;;;;;;;;;;5075489;28;20385;-83
2023/10/26 08:20:04;;;;;;;4.57;1.60;;;;;;;;;;5075505;28;20021;-83
2023/10/26 08:22:30;;;;;;;3.33;1.27;;;;;;;;;;5075248;28;20447;-83
2023/10/26 08:24:55;;;;;;;4.82;1.52;;;;;;;;;;5075345;28;20028;-83
2023/10/26 08:27:22;;;;;;;3.87;1.83;;;;;;;;;;5057141;28;20028;-83
2023/10/26 08:29:47;;;;;;;4.47;1.48;;;;;;;;;;5075264;28;20021;-83
2023/10/26 08:32:12;;;;;;;5.82;2.00;;;;;;;;;;5057265;28;20024;-83
2023/10/26 08:34:38;;;;;;;6.17;1.30;;;;;;;;;;5057130;28;20078;-83
2023/10/26 08:37:03;;;;;;;3.70;1.17;;;;;;;;;;5075109;28;20253;-83
2023/10/26 08:39:29;;;;;;;1.20;1.10;;;;;;;;;;5075092;28;20021;-83
2023/10/26 08:41:57;;;;;;;5.32;1.00;;;;;;;;;;5057081;28;20025;-83
2023/10/26 08:44:24;;;;;;;7.20;1.60;;;;;;;;;;5056974;28;20016;-83
2023/10/26 08:46:51;;;;;;;6.53;1.25;;;;;;;;;;5056825;28;20029;-83
2023/10/26 08:49:16;;;;;;;1.92;0.80;;;;;;;;;;5056908;28;20020;-83
2023/10/26 08:51:41;;;;;;;3.63;1.10;;;;;;;;;;5074828;28;20020;-82
2023/10/26 08:54:06;;;;;;;1.13;1.02;;;;;;;;;;5056448;28;20253;-83
2023/10/26 08:56:32;;;;;;;3.67;1.27;;;;;;;;;;5056730;28;20028;-83
2023/10/26 08:59:02;;;;;;;1.67;1.20;;;;;;;;;;5056733;28;20107;-83
2023/10/26 09:01:28;;;;;;;5.40;0.95;;;;;;;;;;5056662;28;20374;-83
2023/10/26 09:03:53;;;;;;;2.25;1.25;;;;;;;;;;5056594;28;20031;-83
2023/10/26 09:06:18;;;;;;;3.23;1.93;;;;;;;;;;5074460;28;20024;-83
2023/10/26 09:08:43;;;;;;;2.23;1.30;;;;;;;;;;5074386;28;20306;-83
2023/10/26 09:11:25;;;;;;;2.67;1.27;;;;;;;;;;5056520;28;20294;-83
2023/10/26 09:13:52;;;;;;;0.80;0.80;;;;;;;;;;5056494;28;20508;-83
2023/10/26 09:16:18;;;;;;;1.70;0.80;;;;;;;;;;5056400;28;20393;-83
2023/10/26 09:18:52;;;;;;;2.80;0.80;;;;;;;;;;5074586;28;20009;-83
2023/10/26 09:21:17;;;;;;;0.88;0.60;;;;;;;;;;5074185;28;20016;-83
2023/10/26 09:23:45;;;;;;;0.80;0.73;;;;;;;;;;5056118;28;20047;-83
2023/10/26 09:26:10;;;;;;;1.05;0.93;;;;;;;;;;5074016;28;20717;-83
2023/10/26 09:28:48;;;;;;;1.90;1.02;;;;;;;;;;5074080;28;20024;-83
2023/10/26 09:31:13;;;;;;;1.08;0.88;;;;;;;;;;5056414;28;20021;-83
2023/10/26 09:33:39;;;;;;;1.97;1.23;;;;;;;;;;5056075;28;20021;-83
2023/10/26 09:36:12;;;;;;;2.10;1.27;;;;;;;;;;5056025;28;20260;-83
2023/10/26 09:38:37;;;;;;;2.67;1.50;;;;;;;;;;5073854;28;20257;-82
2023/10/26 09:41:04;;;;;;;1.92;1.00;;;;;;;;;;5055935;28;20012;-83
2023/10/26 09:43:30;;;;;;;2.70;1.05;;;;;;;;;;5073817;28;20464;-83
2023/10/26 09:45:55;;;;;;;1.43;0.80;;;;;;;;;;5055960;28;20016;-83
2023/10/26 09:48:20;;;;;;;1.60;0.98;;;;;;;;;;5055691;28;20340;-83
2023/10/26 09:50:46;;;;;;;2.38;1.13;;;;;;;;;;5073760;28;20020;-83
2023/10/26 09:53:12;;;;;;;2.42;0.98;;;;;;;;;;5073673;28;20078;-83
2023/10/26 09:55:37;;;;;;;1.92;0.80;;;;;;;;;;5055705;28;20025;-83
2023/10/26 09:58:04;;;;;;;1.35;0.80;;;;;;;;;;5073631;28;20024;-83
2023/10/26 10:00:31;;;;;;;1.60;0.60;;;;;;;;;;5073548;28;20020;-83
2023/10/26 10:03:10;;;;;;;0.73;0.57;;;;;;;;;;5055546;28;20020;-83
2023/10/26 10:05:39;;;;;;;4.00;0.90;;;;;;;;;;5054996;28;20488;-83
2023/10/26 10:08:05;;;;;;;0.98;0.73;;;;;;;;;;5073442;28;20025;-83
2023/10/26 10:10:30;;;;;;;0.75;0.70;;;;;;;;;;5055403;28;20024;-83
2023/10/26 10:12:56;;;;;;;0.22;0.22;;;;;;;;;;5055449;28;20104;-83
2023/10/26 10:15:41;;;;;;;0.35;0.30;;;;;;;;;;5073403;28;20009;-83
2023/10/26 10:18:07;;;;;;;0.35;0.30;;;;;;;;;;5055448;28;20392;-83
2023/10/26 10:20:33;;;;;;;0.50;0.30;;;;;;;;;;5073282;28;20021;-83
2023/10/26 10:22:59;;;;;;;0.45;0.30;;;;;;;;;;5073159;28;20072;-83
2023/10/26 10:25:43;;;;;;;0.28;0.22;;;;;;;;;;5055247;28;20031;-82
2023/10/26 10:28:09;;;;;;;0.30;0.30;;;;;;;;;;5073134;28;20029;-83
2023/10/26 10:30:46;;;;;;;0.60;0.35;;;;;;;;;;5055180;28;20025;-83
2023/10/26 10:33:19;;;;;;;1.30;0.40;;;;;;;;;;5055240;28;20039;-83
2023/10/26 10:35:44;;;;;;;;;;;;;;;;;;5073503;28;20021;-83
2023/10/26 10:38:12;;;;;;;0.90;0.50;;;;;;;;;;5055158;28;19904;-83
2023/10/26 10:40:39;;;;;;;0.40;0.40;;;;;;;;;;5055164;28;20476;-83
2023/10/26 10:43:05;;;;;;;0.63;0.55;;;;;;;;;;5055131;28;20017;-83
2023/10/26 10:45:30;;;;;;;1.55;0.52;;;;;;;;;;5055131;28;20387;-83
2023/10/26 10:47:55;;;;;;;2.00;0.55;;;;;;;;;;5055121;28;20469;-83
2023/10/26 10:50:22;;;;;;;2.90;0.70;;;;;;;;;;5054968;28;20017;-83
2023/10/26 10:52:47;;;;;;;4.20;1.10;;;;;;;;;;5054972;28;20051;-83
2023/10/26 10:55:29;;;;;;;6.40;1.42;;;;;;;;;;5054987;28;20036;-84
2023/10/26 10:58:02;;;;;;;2.15;0.68;;;;;;;;;;5055037;28;20052;-83
2023/10/26 11:00:28;;;;;;;6.53;1.55;;;;;;;;;;5054895;28;20480;-83
2023/10/26 11:02:59;;;;;;;7.10;1.38;;;;;;;;;;5073219;28;20020;-83
2023/10/26 11:05:34;;;;;;;3.35;1.27;;;;;;;;;;5054953;28;20048;-84
2023/10/26 11:07:59;;;;;;;4.43;1.48;;;;;;;;;;5072732;28;20469;-84
2023/10/26 11:10:25;;;;;;;14.43;1.67;;;;;;;;;;5054931;28;20108;-83
2023/10/26 11:12:50;;;;;;;7.97;2.10;;;;;;;;;;5054802;28;20490;-84
2023/10/26 11:15:15;;;;;;;7.68;1.77;;;;;;;;;;5054810;28;20625;-83
2023/10/26 11:17:41;;;;;;;7.20;1.67;;;;;;;;;;5057732;28;20031;-83
2023/10/26 11:20:26;;;;;;;8.93;1.98;;;;;;;;;;5058570;28;20031;-83
2023/10/26 11:22:55;;;;;;;8.93;1.63;;;;;;;;;;5058142;28;20131;-83
2023/10/26 11:25:26;;;;;;;4.20;1.50;;;;;;;;;;5058589;28;20496;-83
2023/10/26 11:27:52;;;;;;;8.43;2.00;;;;;;;;;;5058371;28;20032;-83
2023/10/26 11:30:17;;;;;;;8.80;2.13;;;;;;;;;;5058419;28;20016;-83
2023/10/26 11:32:42;;;;;;;8.57;1.98;;;;;;;;;;5076302;28;20044;-84
2023/10/26 11:35:08;;;;;;;13.45;2.05;;;;;;;;;;5076211;28;20027;-84
2023/10/26 11:37:35;;;;;;;10.75;1.73;;;;;;;;;;5058297;28;20012;-83
2023/10/26 11:40:01;;;;;;;8.32;1.48;;;;;;;;;;5076088;28;20486;-83
2023/10/26 11:42:45;;;;;;;16.67;2.33;;;;;;;;;;5076128;28;20465;-83
2023/10/26 11:45:15;;;;;;;12.18;1.80;;;;;;;;;;5058227;28;20023;-83
2023/10/26 11:47:50;;;;;;;8.63;1.70;;;;;;;;;;5058051;28;20020;-83
2023/10/26 11:50:22;;;;;;;8.52;1.85;;;;;;;;;;5057989;28;20024;-83
2023/10/26 11:52:48;;;;;;;12.02;2.28;;;;;;;;;;5058022;28;20066;-83
2023/10/26 11:55:14;;;;;;;14.13;2.45;;;;;;;;;;5075915;28;20016;-83
2023/10/26 11:57:40;;;;;;;13.77;2.17;;;;;;;;;;5075852;28;20091;-83
2023/10/26 12:00:08;;;;;;;13.70;2.20;;;;;;;;;;5057917;28;20025;-83
2023/10/26 12:02:34;;;;;;;17.25;2.70;;;;;;;;;;5075783;28;20021;-83
2023/10/26 12:05:03;;;;;;;21.67;2.40;;;;;;;;;;5075766;28;20100;-83
2023/10/26 12:07:28;;;;;;;14.52;2.53;;;;;;;;;;5075601;28;20055;-83
2023/10/26 12:09:53;;;;;;;18.75;2.25;;;;;;;;;;5057617;28;20017;-83
2023/10/26 12:12:19;;;;;;;11.90;1.90;;;;;;;;;;5057624;28;20017;-83
2023/10/26 12:14:44;;;;;;;13.87;2.03;;;;;;;;;;5075531;28;20245;-83
2023/10/26 12:17:09;;;;;;;14.38;2.70;;;;;;;;;;5057518;28;20393;-82
2023/10/26 12:19:35;;;;;;;12.90;2.15;;;;;;;;;;5057508;28;20503;-83
2023/10/26 12:22:00;;;;;;;19.38;2.80;;;;;;;;;;5075230;28;20077;-83
2023/10/26 12:24:25;;;;;;;12.45;2.45;;;;;;;;;;5075363;28;20104;-84
2023/10/26 12:26:57;;;;;;;13.83;2.47;;;;;;;;;;5075283;28;20024;-83
2023/10/26 12:29:22;;;;;;;24.02;3.35;;;;;;;;;;5056670;28;20825;-84
2023/10/26 12:31:47;;;;;;;15.82;2.55;;;;;;;;;;5057304;28;20052;-83
2023/10/26 12:34:12;;;;;;;14.40;2.63;;;;;;;;;;5057161;28;20392;-84
2023/10/26 12:36:37;;;;;;;14.40;2.53;;;;;;;;;;5075111;28;20020;-83
2023/10/26 12:39:03;;;;;;;15.40;2.97;;;;;;;;;;5057207;28;20245;-84
2023/10/26 12:41:28;;;;;;;17.55;2.53;;;;;;;;;;5057073;28;20469;-84
2023/10/26 12:43:53;;;;;;;15.90;2.20;;;;;;;;;;5074996;28;20100;-84
2023/10/26 12:46:18;;;;;;;18.67;3.00;;;;;;;;;;5074859;28;20047;-83
2023/10/26 12:48:44;;;;;;;9.97;1.90;;;;;;;;;;5056886;28;20298;-83
2023/10/26 12:51:09;;;;;;;15.03;2.57;;;;;;;;;;5074802;28;20012;-83
2023/10/26 12:53:35;;;;;;;11.88;1.98;;;;;;;;;;5074764;28;20375;-83
2023/10/26 12:56:01;;;;;;;11.85;2.03;;;;;;;;;;5074741;28;20008;-83
2023/10/26 12:58:26;;;;;;;11.23;1.85;;;;;;;;;;5074717;28;20024;-84
2023/10/26 13:00:52;;;;;;;11.35;2.00;;;;;;;;;;5056684;28;20048;-83
2023/10/26 13:03:17;;;;;;;7.72;1.95;;;;;;;;;;5056658;28;20067;-83
2023/10/26 13:05:42;;;;;;;12.50;2.13;;;;;;;;;;5056659;28;20024;-83
2023/10/26 13:08:08;;;;;;;9.20;1.87;;;;;;;;;;5056478;28;20261;-84
2023/10/26 13:10:33;;;;;;;14.38;2.22;;;;;;;;;;5056504;28;20729;-83
2023/10/26 13:12:58;;;;;;;10.35;1.85;;;;;;;;;;5074398;28;20040;-84
2023/10/26 13:15:24;;;;;;;13.73;2.30;;;;;;;;;;5056466;28;20070;-83
2023/10/26 13:17:49;;;;;;;7.43;1.30;;;;;;;;;;5056315;28;20093;-84
2023/10/26 13:20:14;;;;;;;9.63;2.00;;;;;;;;;;5056327;28;20256;-83
2023/10/26 13:22:39;;;;;;;10.20;1.70;;;;;;;;;;5056135;28;20382;-83
2023/10/26 13:25:05;;;;;;;13.35;2.10;;;;;;;;;;5074226;28;20526;-83
2023/10/26 13:27:30;;;;;;;8.25;1.35;;;;;;;;;;5074103;28;20021;-83
2023/10/26 13:29:55;;;;;;;11.93;2.10;;;;;;;;;;5056162;28;20487;-83
2023/10/26 13:32:20;;;;;;;10.33;1.50;;;;;;;;;;5056130;28;20249;-83
2023/10/26 13:34:46;;;;;;;8.47;1.97;;;;;;;;;;5073907;28;20480;-83
2023/10/26 13:37:11;;;;;;;8.33;1.50;;;;;;;;;;5073880;28;20253;-84
2023/10/26 13:39:38;;;;;;;13.27;1.60;;;;;;;;;;5073191;28;20469;-83
2023/10/26 13:42:03;;;;;;;7.95;1.60;;;;;;;;;;5073723;28;20024;-83
2023/10/26 13:44:29;;;;;;;10.80;1.73;;;;;;;;;;5073878;28;20083;-84
2023/10/26 13:46:54;;;;;;;8.53;1.37;;;;;;;;;;5055730;28;20024;-83
2023/10/26 13:49:19;;;;;;;7.00;1.43;;;;;;;;;;5055808;28;20415;-83
2023/10/26 13:51:44;;;;;;;6.90;2.10;;;;;;;;;;5055736;28;20468;-83
2023/10/26 13:54:10;;;;;;;8.85;1.80;;;;;;;;;;5055702;28;20722;-83
2023/10/26 13:56:35;;;;;;;9.85;1.67;;;;;;;;;;5073597;28;20028;-84
2023/10/26 13:59:01;;;;;;;9.10;1.40;;;;;;;;;;5073577;28;20357;-83
2023/10/26 14:01:27;;;;;;;10.18;1.48;;;;;;;;;;5073619;28;20284;-83
2023/10/26 14:03:52;;;;;;;11.23;1.20;;;;;;;;;;5073492;28;20047;-82
2023/10/26 14:06:17;;;;;;;3.80;1.10;;;;;;;;;;5055498;28;20048;-83
2023/10/26 14:08:42;;;;;;;5.95;1.10;;;;;;;;;;5073446;28;20253;-83
2023/10/26 14:11:08;;;;;;;5.20;1.07;;;;;;;;;;5055507;28;20017;-83
2023/10/26 14:13:33;;;;;;;4.90;1.40;;;;;;;;;;5055510;28;20729;-83
2023/10/26 14:15:58;;;;;;;7.13;1.40;;;;;;;;;;5055365;28;20802;-83
2023/10/26 14:18:23;;;;;;;3.30;0.70;;;;;;;;;;5055327;28;20245;-83
2023/10/26 14:20:48;;;;;;;2.73;0.70;;;;;;;;;;5055352;28;20257;-83
2023/10/26 14:23:14;;;;;;;5.57;1.00;;;;;;;;;;5073161;28;20079;-83
2023/10/26 14:25:41;;;;;;;9.57;1.07;;;;;;;;;;5073313;28;20314;-83
2023/10/26 14:28:06;;;;;;;5.10;0.88;;;;;;;;;;5073209;28;20043;-83
2023/10/26 14:30:33;;;;;;;5.43;1.50;;;;;;;;;;5055265;28;20021;-83
2023/10/26 14:32:58;;;;;;;11.73;1.42;;;;;;;;;;5073230;28;20276;-83